Time;durP1;ratioP1;P1;durP2;ratioP2;P2;SDS_P1;SDS_P2;PMS_P1;PMS_P2;Temp;Humidity;BMP_temperature;BMP_pressure;BME280_temperature;BME280_humidity;BME280_pressure;Samples;Min_cycle;Max_cycle;Signal;HPM_P1;HPM_P2
2021/12/09 00:01:02;;;;;;;2.53;1.90;;;;;;;;;;5026241;28;20534;-49
2021/12/09 00:03:32;;;;;;;2.53;2.07;;;;;;;;;;5043138;28;20548;-50
2021/12/09 00:05:59;;;;;;;7.77;1.77;;;;;;;;;;5019097;28;20477;-48
2021/12/09 00:08:26;;;;;;;8.13;2.37;;;;;;;;;;5041502;28;20435;-50
2021/12/09 00:10:53;;;;;;;3.03;1.80;;;;;;;;;;5038640;28;20533;-49
2021/12/09 00:13:20;;;;;;;3.93;1.90;;;;;;;;;;5042512;28;21206;-50
2021/12/09 00:15:46;;;;;;;2.83;2.13;;;;;;;;;;5040704;28;20879;-50
2021/12/09 00:18:13;;;;;;;2.70;1.87;;;;;;;;;;5039466;28;20573;-50
2021/12/09 00:20:39;;;;;;;1.57;1.47;;;;;;;;;;5018113;28;20442;-49
2021/12/09 00:23:07;;;;;;;4.00;1.80;;;;;;;;;;5044266;28;20485;-48
2021/12/09 00:25:38;;;;;;;2.70;2.00;;;;;;;;;;5030256;28;20478;-50
2021/12/09 00:28:04;;;;;;;2.20;1.90;;;;;;;;;;5048609;28;20431;-49
2021/12/09 00:30:31;;;;;;;2.70;2.30;;;;;;;;;;5041271;28;20482;-50
2021/12/09 00:32:58;;;;;;;4.20;2.00;;;;;;;;;;5039393;28;20435;-50
2021/12/09 00:35:29;;;;;;;4.10;1.80;;;;;;;;;;5021252;28;20482;-47
2021/12/09 00:38:08;;;;;;;2.47;1.50;;;;;;;;;;5046461;28;20418;-49
2021/12/09 00:40:34;;;;;;;1.73;1.30;;;;;;;;;;5021736;28;20458;-50
2021/12/09 00:43:02;;;;;;;4.70;1.87;;;;;;;;;;5017144;28;20858;-48
2021/12/09 00:45:28;;;;;;;5.10;2.77;;;;;;;;;;5042334;28;20493;-48
2021/12/09 00:47:55;;;;;;;6.83;3.03;;;;;;;;;;5044281;28;20908;-50
2021/12/09 00:50:21;;;;;;;3.73;2.17;;;;;;;;;;5045988;28;20447;-49
2021/12/09 00:52:47;;;;;;;9.83;3.07;;;;;;;;;;5016071;28;20443;-48
2021/12/09 00:55:20;;;;;;;3.60;2.20;;;;;;;;;;5044845;28;20538;-50
2021/12/09 00:57:48;;;;;;;6.43;2.30;;;;;;;;;;5041923;28;20426;-49
2021/12/09 01:00:16;;;;;;;2.60;1.93;;;;;;;;;;5042840;28;20446;-49
2021/12/09 01:02:42;;;;;;;5.33;2.30;;;;;;;;;;5041895;28;20537;-50
2021/12/09 01:05:08;;;;;;;5.43;2.07;;;;;;;;;;5044912;28;20998;-50
2021/12/09 01:07:34;;;;;;;4.10;2.50;;;;;;;;;;5039872;28;20431;-49
2021/12/09 01:10:04;;;;;;;2.33;1.50;;;;;;;;;;5039460;28;20446;-49
2021/12/09 01:12:31;;;;;;;5.93;2.57;;;;;;;;;;4991754;28;20959;-52
2021/12/09 01:14:57;;;;;;;7.03;2.30;;;;;;;;;;5044662;28;20476;-50
2021/12/09 01:17:23;;;;;;;2.63;2.20;;;;;;;;;;5039292;28;20176;-49
2021/12/09 01:19:50;;;;;;;3.43;2.33;;;;;;;;;;5035915;28;20454;-49
2021/12/09 01:22:16;;;;;;;3.70;2.87;;;;;;;;;;5014292;28;20446;-48
2021/12/09 01:24:42;;;;;;;3.40;2.60;;;;;;;;;;5043224;28;21061;-50
2021/12/09 01:27:09;;;;;;;4.67;2.43;;;;;;;;;;5040077;28;20442;-49
2021/12/09 01:29:41;;;;;;;2.83;2.30;;;;;;;;;;5039583;28;20442;-47
2021/12/09 01:32:08;;;;;;;6.10;2.50;;;;;;;;;;5027295;28;20957;-49
2021/12/09 01:34:37;;;;;;;3.33;3.03;;;;;;;;;;5036832;28;20503;-47
2021/12/09 01:37:20;;;;;;;4.33;2.73;;;;;;;;;;5057286;28;20921;-49
2021/12/09 01:39:49;;;;;;;4.10;2.87;;;;;;;;;;5036523;28;20516;-47
2021/12/09 01:42:20;;;;;;;7.03;2.77;;;;;;;;;;5036365;28;20553;-50
2021/12/09 01:44:46;;;;;;;10.10;2.60;;;;;;;;;;5014451;28;20223;-50
2021/12/09 01:47:22;;;;;;;2.47;1.93;;;;;;;;;;5025590;28;20911;-50
2021/12/09 01:49:49;;;;;;;3.20;2.70;;;;;;;;;;5037976;28;20507;-50
2021/12/09 01:52:22;;;;;;;3.73;3.40;;;;;;;;;;5021011;28;20465;-49
2021/12/09 01:54:48;;;;;;;3.67;2.77;;;;;;;;;;5044259;28;20473;-49
2021/12/09 01:57:14;;;;;;;4.43;2.70;;;;;;;;;;5018392;28;20472;-48
2021/12/09 01:59:41;;;;;;;6.80;3.60;;;;;;;;;;5046068;28;20446;-49
2021/12/09 02:02:07;;;;;;;5.67;3.33;;;;;;;;;;4999322;28;20958;-48
2021/12/09 02:04:33;;;;;;;4.40;2.80;;;;;;;;;;5037810;28;20486;-49
2021/12/09 02:07:03;;;;;;;5.60;3.20;;;;;;;;;;5022607;28;20557;-50
2021/12/09 02:09:30;;;;;;;4.50;3.93;;;;;;;;;;5038433;28;20843;-49
2021/12/09 02:12:05;;;;;;;5.40;3.20;;;;;;;;;;5026471;28;20439;-49
2021/12/09 02:14:32;;;;;;;8.30;5.07;;;;;;;;;;5040874;28;20785;-50
2021/12/09 02:17:17;;;;;;;8.83;4.80;;;;;;;;;;5013316;28;21610;-48
2021/12/09 02:19:44;;;;;;;8.70;4.30;;;;;;;;;;5038282;28;20442;-48
2021/12/09 02:22:11;;;;;;;5.10;4.60;;;;;;;;;;5021174;28;20442;-47
2021/12/09 02:24:37;;;;;;;6.03;4.00;;;;;;;;;;5042933;28;20471;-48
2021/12/09 02:27:03;;;;;;;6.67;3.90;;;;;;;;;;5014257;28;20442;-48
2021/12/09 02:29:29;;;;;;;10.83;4.73;;;;;;;;;;5044756;28;20861;-48
2021/12/09 02:32:07;;;;;;;5.80;3.80;;;;;;;;;;5046108;28;20930;-49
2021/12/09 02:34:36;;;;;;;10.90;4.17;;;;;;;;;;5038248;28;20443;-48
2021/12/09 02:37:05;;;;;;;6.53;4.30;;;;;;;;;;5033841;28;20637;-49
2021/12/09 02:39:32;;;;;;;7.17;3.70;;;;;;;;;;5041776;28;20448;-50
2021/12/09 02:42:07;;;;;;;10.27;4.00;;;;;;;;;;5021175;28;20950;-49
2021/12/09 02:44:35;;;;;;;6.93;3.60;;;;;;;;;;5027022;28;20527;-49
2021/12/09 02:47:04;;;;;;;7.00;4.43;;;;;;;;;;5042380;28;20481;-50
2021/12/09 02:49:34;;;;;;;8.50;4.00;;;;;;;;;;5006204;28;20870;-50
2021/12/09 02:52:06;;;;;;;7.83;4.47;;;;;;;;;;5041564;28;20902;-49
2021/12/09 02:54:52;;;;;;;10.30;4.37;;;;;;;;;;5034919;28;20438;-47
2021/12/09 02:57:20;;;;;;;4.70;3.93;;;;;;;;;;5037889;28;20522;-48
2021/12/09 02:59:53;;;;;;;7.83;4.80;;;;;;;;;;5045384;28;20446;-50
2021/12/09 03:02:20;;;;;;;6.60;3.97;;;;;;;;;;5018497;28;20438;-49
2021/12/09 03:04:47;;;;;;;9.47;5.93;;;;;;;;;;5022078;28;20475;-48
2021/12/09 03:07:19;;;;;;;5.43;3.33;;;;;;;;;;5038887;28;20453;-48
2021/12/09 03:09:53;;;;;;;9.10;4.53;;;;;;;;;;5037433;28;20442;-49
2021/12/09 03:12:24;;;;;;;4.60;3.80;;;;;;;;;;5039976;28;20438;-49
2021/12/09 03:14:50;;;;;;;12.03;3.70;;;;;;;;;;5043202;28;20442;-48
2021/12/09 03:17:16;;;;;;;7.93;3.63;;;;;;;;;;5038832;28;20427;-47
2021/12/09 03:19:42;;;;;;;6.07;3.80;;;;;;;;;;5031075;28;20439;-47
2021/12/09 03:22:38;;;;;;;5.97;3.57;;;;;;;;;;5035578;28;20450;-49
2021/12/09 03:25:14;;;;;;;5.27;3.87;;;;;;;;;;5029441;28;21189;-50
2021/12/09 03:27:53;;;;;;;9.17;4.00;;;;;;;;;;5046789;28;20426;-49
2021/12/09 03:30:19;;;;;;;7.07;4.10;;;;;;;;;;5046088;28;20573;-49
2021/12/09 03:32:52;;;;;;;4.30;3.90;;;;;;;;;;5040329;28;20931;-50
2021/12/09 03:35:18;;;;;;;5.50;3.93;;;;;;;;;;5042027;28;20507;-49
2021/12/09 03:37:50;;;;;;;5.23;4.07;;;;;;;;;;5032659;28;20554;-49
2021/12/09 03:40:16;;;;;;;12.40;4.40;;;;;;;;;;5037369;28;20435;-48
2021/12/09 03:42:43;;;;;;;6.27;3.90;;;;;;;;;;5024995;28;20611;-47
2021/12/09 03:45:09;;;;;;;8.70;3.70;;;;;;;;;;5010120;28;20600;-49
2021/12/09 03:47:36;;;;;;;5.43;4.00;;;;;;;;;;5043774;28;20432;-50
2021/12/09 03:50:03;;;;;;;7.83;4.40;;;;;;;;;;5034514;28;20486;-48
2021/12/09 03:52:29;;;;;;;8.87;4.43;;;;;;;;;;5034805;28;20470;-48
2021/12/09 03:54:57;;;;;;;11.53;4.77;;;;;;;;;;5000533;28;20727;-50
2021/12/09 03:57:23;;;;;;;7.77;4.20;;;;;;;;;;5039938;28;20442;-48
2021/12/09 03:59:49;;;;;;;10.23;4.20;;;;;;;;;;5022413;28;20427;-47
2021/12/09 04:02:15;;;;;;;8.53;4.00;;;;;;;;;;5040636;28;20938;-48
2021/12/09 04:04:59;;;;;;;13.47;5.00;;;;;;;;;;5032208;28;20494;-49
2021/12/09 04:07:30;;;;;;;10.50;4.40;;;;;;;;;;5038122;28;20496;-50
2021/12/09 04:10:02;;;;;;;5.00;4.27;;;;;;;;;;5046429;28;20537;-50
2021/12/09 04:12:31;;;;;;;7.80;4.20;;;;;;;;;;5039463;28;20446;-49
2021/12/09 04:14:57;;;;;;;6.97;4.67;;;;;;;;;;5027897;28;20457;-49
2021/12/09 04:17:23;;;;;;;9.30;4.10;;;;;;;;;;5041848;28;20515;-49
2021/12/09 04:19:50;;;;;;;6.43;4.07;;;;;;;;;;5015070;28;20485;-49
2021/12/09 04:22:16;;;;;;;7.97;3.97;;;;;;;;;;5053320;28;21046;-49
2021/12/09 04:24:47;;;;;;;6.33;4.27;;;;;;;;;;5000720;28;20531;-49
2021/12/09 04:27:15;;;;;;;8.47;4.30;;;;;;;;;;5040395;28;20970;-49
2021/12/09 04:29:41;;;;;;;9.20;4.33;;;;;;;;;;5028843;28;20503;-50
2021/12/09 04:32:09;;;;;;;7.60;4.03;;;;;;;;;;5043354;28;20483;-49
2021/12/09 04:34:36;;;;;;;8.00;4.03;;;;;;;;;;5020865;28;20438;-50
2021/12/09 04:37:03;;;;;;;6.43;3.53;;;;;;;;;;5039527;28;20470;-49
2021/12/09 04:39:29;;;;;;;5.20;3.60;;;;;;;;;;5025055;28;20454;-49
2021/12/09 04:41:55;;;;;;;9.33;3.70;;;;;;;;;;5038209;28;20436;-48
2021/12/09 04:44:21;;;;;;;8.30;3.80;;;;;;;;;;5013916;28;20467;-48
2021/12/09 04:46:47;;;;;;;5.23;3.73;;;;;;;;;;5037502;28;20492;-50
2021/12/09 04:49:14;;;;;;;7.17;3.43;;;;;;;;;;5026833;28;20490;-50
2021/12/09 04:51:40;;;;;;;6.73;3.40;;;;;;;;;;5025071;28;20440;-48
2021/12/09 04:54:06;;;;;;;5.83;2.90;;;;;;;;;;5033421;28;20449;-48
2021/12/09 04:56:33;;;;;;;5.70;3.03;;;;;;;;;;5036819;28;20932;-48
2021/12/09 04:58:58;;;;;;;5.67;3.60;;;;;;;;;;5033740;28;20629;-47
2021/12/09 05:01:25;;;;;;;8.30;3.60;;;;;;;;;;5040174;28;20951;-49
2021/12/09 05:03:51;;;;;;;4.23;2.50;;;;;;;;;;5018732;28;20944;-48
2021/12/09 05:06:17;;;;;;;9.23;3.23;;;;;;;;;;5033228;28;20466;-47
2021/12/09 05:08:48;;;;;;;5.73;3.47;;;;;;;;;;5033657;28;20454;-50
2021/12/09 05:11:28;;;;;;;5.87;3.30;;;;;;;;;;5036176;28;20458;-47
2021/12/09 05:13:54;;;;;;;9.00;2.57;;;;;;;;;;5010196;28;20965;-47
2021/12/09 05:16:20;;;;;;;10.20;2.93;;;;;;;;;;5031129;28;20435;-48
2021/12/09 05:18:48;;;;;;;11.23;2.57;;;;;;;;;;5032889;28;20504;-49
2021/12/09 05:21:14;;;;;;;3.00;2.50;;;;;;;;;;5033560;28;20512;-47
2021/12/09 05:24:06;;;;;;;6.20;2.70;;;;;;;;;;5028050;28;20446;-49
2021/12/09 05:26:51;;;;;;;7.93;2.90;;;;;;;;;;5036850;28;21385;-49
2021/12/09 05:29:17;;;;;;;12.53;2.77;;;;;;;;;;5004006;28;20943;-49
2021/12/09 05:34:28;;;;;;;9.50;3.03;;;;;;;;;;5032724;28;20480;-50
2021/12/09 05:36:53;;;;;;;6.20;2.60;;;;;;;;;;5042714;28;20442;-49
2021/12/09 05:39:19;;;;;;;15.90;2.87;;;;;;;;;;5024545;28;20664;-49
2021/12/09 05:41:46;;;;;;;4.57;2.70;;;;;;;;;;5038028;28;20510;-50
2021/12/09 05:44:12;;;;;;;13.63;3.60;;;;;;;;;;5016385;28;20472;-53
2021/12/09 05:46:39;;;;;;;5.90;2.90;;;;;;;;;;5040660;28;20549;-50
2021/12/09 05:49:05;;;;;;;5.80;2.10;;;;;;;;;;5013679;28;21633;-48
2021/12/09 05:51:38;;;;;;;6.17;2.50;;;;;;;;;;5023916;28;20442;-50
2021/12/09 05:54:16;;;;;;;5.00;2.70;;;;;;;;;;5040763;28;20531;-49
2021/12/09 05:56:46;;;;;;;5.30;3.20;;;;;;;;;;5035314;28;20453;-49
2021/12/09 05:59:38;;;;;;;6.93;3.23;;;;;;;;;;5016603;28;22392;-49
2021/12/09 06:02:04;;;;;;;3.13;2.77;;;;;;;;;;5035072;28;20947;-47
2021/12/09 06:04:39;;;;;;;3.97;2.27;;;;;;;;;;5019098;28;20470;-50
2021/12/09 06:07:09;;;;;;;6.13;3.60;;;;;;;;;;5049619;28;20461;-49
2021/12/09 06:09:35;;;;;;;4.80;2.40;;;;;;;;;;5013496;28;20917;-48
2021/12/09 06:12:01;;;;;;;4.30;3.30;;;;;;;;;;5034374;28;20500;-47
2021/12/09 06:14:27;;;;;;;3.30;2.27;;;;;;;;;;5014920;28;22275;-48
2021/12/09 06:16:53;;;;;;;3.87;2.37;;;;;;;;;;5043367;28;20984;-48
2021/12/09 06:19:20;;;;;;;8.13;2.77;;;;;;;;;;5030700;28;20434;-48
2021/12/09 06:21:57;;;;;;;2.43;2.03;;;;;;;;;;5039545;28;20438;-48
2021/12/09 06:24:26;;;;;;;2.73;2.20;;;;;;;;;;5017675;28;21286;-47
2021/12/09 06:26:52;;;;;;;2.90;2.03;;;;;;;;;;5036754;28;20529;-47
2021/12/09 06:29:18;;;;;;;3.60;2.10;;;;;;;;;;5034176;28;20556;-47
2021/12/09 06:31:44;;;;;;;2.30;2.10;;;;;;;;;;5034903;28;20526;-47
2021/12/09 06:34:26;;;;;;;8.10;2.90;;;;;;;;;;5017918;28;20466;-50
2021/12/09 06:36:57;;;;;;;5.13;2.60;;;;;;;;;;5035071;28;20950;-47
2021/12/09 06:39:23;;;;;;;5.33;2.43;;;;;;;;;;5026901;28;20526;-48
2021/12/09 06:42:13;;;;;;;8.00;2.23;;;;;;;;;;5038432;28;20442;-49
2021/12/09 06:44:39;;;;;;;5.23;3.43;;;;;;;;;;5033569;28;20573;-49
2021/12/09 06:47:05;;;;;;;4.93;2.27;;;;;;;;;;5037701;28;20424;-47
2021/12/09 06:49:31;;;;;;;5.27;3.47;;;;;;;;;;5040593;28;20457;-47
2021/12/09 06:52:03;;;;;;;6.83;3.50;;;;;;;;;;5041236;28;20458;-49
2021/12/09 06:54:41;;;;;;;5.27;2.50;;;;;;;;;;5046869;28;20450;-49
2021/12/09 06:57:09;;;;;;;4.80;2.90;;;;;;;;;;5014744;28;20450;-47
2021/12/09 06:59:42;;;;;;;7.90;2.90;;;;;;;;;;5039911;28;20823;-50
2021/12/09 07:02:09;;;;;;;4.80;3.30;;;;;;;;;;5043488;28;20448;-48
2021/12/09 07:04:36;;;;;;;6.37;2.87;;;;;;;;;;5035692;28;21748;-48
2021/12/09 07:07:02;;;;;;;3.40;2.30;;;;;;;;;;5024663;28;20442;-49
2021/12/09 07:09:30;;;;;;;4.10;2.67;;;;;;;;;;5014998;28;20441;-49
2021/12/09 07:11:57;;;;;;;2.97;2.60;;;;;;;;;;5041681;28;20542;-49
2021/12/09 07:14:32;;;;;;;3.50;2.37;;;;;;;;;;5017941;28;22735;-49
2021/12/09 07:16:58;;;;;;;4.83;2.10;;;;;;;;;;5039946;28;20434;-47
2021/12/09 07:19:24;;;;;;;3.87;1.80;;;;;;;;;;5034915;28;20811;-49
2021/12/09 07:21:51;;;;;;;8.13;3.00;;;;;;;;;;5037287;28;20885;-47
2021/12/09 07:24:27;;;;;;;2.80;2.27;;;;;;;;;;4988120;28;1202393;-48
2021/12/09 07:26:54;;;;;;;2.83;2.30;;;;;;;;;;5019688;28;20176;-48
2021/12/09 07:29:20;;;;;;;3.23;2.53;;;;;;;;;;5038887;28;20428;-48
2021/12/09 07:31:51;;;;;;;4.97;2.40;;;;;;;;;;5029918;28;20755;-50
2021/12/09 07:34:21;;;;;;;10.33;2.73;;;;;;;;;;5044552;28;20468;-48
2021/12/09 07:36:57;;;;;;;2.97;2.63;;;;;;;;;;4992203;28;21198;-50
2021/12/09 07:39:38;;;;;;;4.13;2.90;;;;;;;;;;5037568;28;20438;-50
2021/12/09 07:42:08;;;;;;;2.90;2.23;;;;;;;;;;5036636;28;20438;-48
2021/12/09 07:44:34;;;;;;;4.10;2.60;;;;;;;;;;5037433;28;20943;-48
2021/12/09 07:47:00;;;;;;;4.90;2.43;;;;;;;;;;5028908;28;20442;-50
2021/12/09 07:49:42;;;;;;;3.07;1.90;;;;;;;;;;5041005;28;21569;-50
2021/12/09 07:52:21;;;;;;;6.27;2.70;;;;;;;;;;5034641;28;20998;-49
2021/12/09 07:54:56;;;;;;;5.70;2.40;;;;;;;;;;5037540;28;20446;-50
2021/12/09 07:57:25;;;;;;;4.10;2.90;;;;;;;;;;5032717;28;20445;-48
2021/12/09 07:59:58;;;;;;;5.37;2.90;;;;;;;;;;5033546;28;20496;-50
2021/12/09 08:02:34;;;;;;;8.40;3.20;;;;;;;;;;5032190;28;20533;-50
2021/12/09 08:05:17;;;;;;;3.57;2.23;;;;;;;;;;5045274;28;20472;-51
2021/12/09 08:07:45;;;;;;;4.33;3.50;;;;;;;;;;5039457;28;20434;-49
2021/12/09 08:10:19;;;;;;;3.30;2.33;;;;;;;;;;5025452;28;23868;-48
2021/12/09 08:12:46;;;;;;;5.33;3.47;;;;;;;;;;5027241;28;20452;-48
2021/12/09 08:15:16;;;;;;;4.53;3.53;;;;;;;;;;5038695;28;21227;-52
2021/12/09 08:20:16;;;;;;;4.00;3.60;;;;;;;;;;5041898;28;20454;-49
2021/12/09 08:22:44;;;;;;;13.53;2.90;;;;;;;;;;5028279;28;20433;-49
2021/12/09 08:25:15;;;;;;;5.63;3.00;;;;;;;;;;5043690;28;20510;-49
2021/12/09 08:27:45;;;;;;;6.70;3.80;;;;;;;;;;5019434;28;20431;-49
2021/12/09 08:30:15;;;;;;;3.33;2.10;;;;;;;;;;5039493;28;20448;-53
2021/12/09 08:32:41;;;;;;;4.10;2.70;;;;;;;;;;5033859;28;20601;-48
2021/12/09 08:35:07;;;;;;;7.50;3.10;;;;;;;;;;5040697;28;20465;-48
2021/12/09 08:37:33;;;;;;;10.57;3.23;;;;;;;;;;5038634;28;20445;-50
2021/12/09 08:40:03;;;;;;;4.20;2.40;;;;;;;;;;5040868;28;21049;-49
2021/12/09 08:42:29;;;;;;;3.40;2.50;;;;;;;;;;5025608;28;20879;-49
2021/12/09 08:44:57;;;;;;;4.83;3.40;;;;;;;;;;5037490;28;20540;-53
2021/12/09 08:47:29;;;;;;;3.50;3.17;;;;;;;;;;5038147;28;20435;-50
2021/12/09 08:49:56;;;;;;;19.57;4.30;;;;;;;;;;5046294;28;20443;-48
2021/12/09 08:52:22;;;;;;;4.40;2.70;;;;;;;;;;5034362;28;20999;-49
2021/12/09 08:54:48;;;;;;;5.40;3.63;;;;;;;;;;5044854;28;20453;-50
2021/12/09 08:57:14;;;;;;;3.33;3.03;;;;;;;;;;5039032;28;20910;-49
2021/12/09 08:59:40;;;;;;;3.97;2.87;;;;;;;;;;5041642;28;21235;-49
2021/12/09 09:02:06;;;;;;;7.23;3.43;;;;;;;;;;5031823;28;20442;-49
2021/12/09 09:04:32;;;;;;;4.40;2.37;;;;;;;;;;5042732;28;20980;-48
2021/12/09 09:06:59;;;;;;;7.70;3.03;;;;;;;;;;5038563;28;21218;-49
2021/12/09 09:09:27;;;;;;;4.03;3.10;;;;;;;;;;5042670;28;20443;-50
2021/12/09 09:11:56;;;;;;;10.20;3.50;;;;;;;;;;5033230;28;20431;-49
2021/12/09 09:14:24;;;;;;;7.10;4.10;;;;;;;;;;5044660;28;20545;-49
2021/12/09 09:17:00;;;;;;;5.23;2.80;;;;;;;;;;5032082;28;20533;-48
2021/12/09 09:19:27;;;;;;;5.03;3.07;;;;;;;;;;5036920;28;20445;-48
2021/12/09 09:21:53;;;;;;;4.63;3.53;;;;;;;;;;5045520;28;20517;-48
2021/12/09 09:24:19;;;;;;;3.30;3.00;;;;;;;;;;5029936;28;20632;-49
2021/12/09 09:26:45;;;;;;;13.63;3.63;;;;;;;;;;5043988;28;20468;-47
2021/12/09 09:29:11;;;;;;;4.17;3.70;;;;;;;;;;5036352;28;21393;-48
2021/12/09 09:31:39;;;;;;;5.83;3.50;;;;;;;;;;5043577;28;20496;-48
2021/12/09 09:34:05;;;;;;;4.33;3.50;;;;;;;;;;5036960;28;20487;-50
2021/12/09 09:36:31;;;;;;;6.83;3.77;;;;;;;;;;5043923;28;20445;-48
2021/12/09 09:39:06;;;;;;;5.10;3.93;;;;;;;;;;5033507;28;20885;-49
2021/12/09 09:41:40;;;;;;;3.57;3.23;;;;;;;;;;5042201;28;20460;-49
2021/12/09 09:44:12;;;;;;;3.87;3.47;;;;;;;;;;5026363;28;20921;-49
2021/12/09 09:46:39;;;;;;;6.40;4.00;;;;;;;;;;5041101;28;21042;-47
2021/12/09 09:49:06;;;;;;;5.67;3.23;;;;;;;;;;5040334;28;20433;-49
2021/12/09 09:51:43;;;;;;;10.70;3.83;;;;;;;;;;5042558;28;20508;-50
2021/12/09 09:54:10;;;;;;;5.20;3.07;;;;;;;;;;5018880;28;20431;-49
2021/12/09 09:56:40;;;;;;;8.10;3.50;;;;;;;;;;5042838;28;20492;-49
2021/12/09 09:59:07;;;;;;;4.50;3.17;;;;;;;;;;5040240;28;20521;-51
2021/12/09 10:01:34;;;;;;;6.30;3.37;;;;;;;;;;5038864;28;20437;-49
2021/12/09 10:04:10;;;;;;;6.73;3.77;;;;;;;;;;5033688;28;20533;-49
2021/12/09 10:06:37;;;;;;;7.47;3.80;;;;;;;;;;5040121;28;20525;-49
2021/12/09 10:09:08;;;;;;;4.23;3.10;;;;;;;;;;5045010;28;20429;-50
2021/12/09 10:11:37;;;;;;;3.80;3.00;;;;;;;;;;5039209;28;20512;-47
2021/12/09 10:14:15;;;;;;;5.00;2.90;;;;;;;;;;5035042;28;20474;-49
2021/12/09 10:16:42;;;;;;;4.57;2.87;;;;;;;;;;5059073;28;20524;-50
2021/12/09 10:19:19;;;;;;;3.57;3.03;;;;;;;;;;5026013;28;20439;-48
2021/12/09 10:21:46;;;;;;;3.53;2.87;;;;;;;;;;5046688;28;20473;-50
2021/12/09 10:24:13;;;;;;;6.97;3.37;;;;;;;;;;5022654;28;20528;-50
2021/12/09 10:26:40;;;;;;;2.63;2.30;;;;;;;;;;5044997;28;20535;-49
2021/12/09 10:29:08;;;;;;;5.60;3.17;;;;;;;;;;5044224;28;20541;-49
2021/12/09 10:31:37;;;;;;;8.70;3.47;;;;;;;;;;5045075;28;20989;-50
2021/12/09 10:36:44;;;;;;;2.73;2.23;;;;;;;;;;5044260;28;20508;-48
2021/12/09 10:39:19;;;;;;;7.07;3.23;;;;;;;;;;5030246;28;20425;-49
2021/12/09 10:41:45;;;;;;;4.70;3.10;;;;;;;;;;5037029;28;20957;-48
2021/12/09 10:44:22;;;;;;;7.00;2.83;;;;;;;;;;5030832;28;20466;-48
2021/12/09 10:47:05;;;;;;;3.00;2.50;;;;;;;;;;5040806;28;20434;-47
2021/12/09 10:49:39;;;;;;;6.77;3.20;;;;;;;;;;5027421;28;20445;-48
2021/12/09 10:52:20;;;;;;;4.70;4.00;;;;;;;;;;5041151;28;20422;-50
2021/12/09 10:54:46;;;;;;;4.30;3.17;;;;;;;;;;5045535;28;20446;-48
2021/12/09 10:57:41;;;;;;;4.80;3.20;;;;;;;;;;5048958;28;20530;-48
2021/12/09 11:00:19;;;;;;;4.83;2.67;;;;;;;;;;5044632;28;20458;-49
2021/12/09 11:02:57;;;;;;;3.43;2.07;;;;;;;;;;5046747;28;20442;-50
2021/12/09 11:05:23;;;;;;;3.83;2.97;;;;;;;;;;5043372;28;20854;-51
2021/12/09 11:07:55;;;;;;;4.20;2.60;;;;;;;;;;5031397;28;20549;-49
2021/12/09 11:10:24;;;;;;;5.43;2.77;;;;;;;;;;5033990;28;20450;-49
2021/12/09 11:12:59;;;;;;;2.40;1.90;;;;;;;;;;5043747;28;20426;-49
2021/12/09 11:15:47;;;;;;;5.63;3.10;;;;;;;;;;5041429;28;20450;-49
2021/12/09 11:18:34;;;;;;;3.93;2.80;;;;;;;;;;5017885;28;20510;-51
2021/12/09 11:21:02;;;;;;;3.87;2.67;;;;;;;;;;5044801;28;20454;-49
2021/12/09 11:23:37;;;;;;;3.63;2.57;;;;;;;;;;5039380;28;20450;-49
2021/12/09 11:26:38;;;;;;;3.73;2.70;;;;;;;;;;5039117;28;21069;-49
2021/12/09 11:29:08;;;;;;;3.60;2.00;;;;;;;;;;5017817;28;20507;-49
2021/12/09 11:31:49;;;;;;;4.60;2.50;;;;;;;;;;5045365;28;20477;-49
2021/12/09 11:34:22;;;;;;;3.70;2.47;;;;;;;;;;5033404;28;20488;-49
2021/12/09 11:36:50;;;;;;;2.90;2.33;;;;;;;;;;5041459;28;20438;-49
2021/12/09 11:39:21;;;;;;;3.70;3.10;;;;;;;;;;5040113;28;20518;-49
2021/12/09 11:41:48;;;;;;;4.00;2.50;;;;;;;;;;5041331;28;20443;-49
2021/12/09 11:44:14;;;;;;;3.53;2.97;;;;;;;;;;5022273;28;20527;-49
2021/12/09 11:46:40;;;;;;;3.70;2.70;;;;;;;;;;5045207;28;20439;-49
2021/12/09 11:49:07;;;;;;;6.13;2.97;;;;;;;;;;5033125;28;20449;-49
2021/12/09 11:51:33;;;;;;;4.87;2.50;;;;;;;;;;5044926;28;20786;-50
2021/12/09 11:54:03;;;;;;;2.73;2.33;;;;;;;;;;5004561;28;20443;-49
2021/12/09 11:56:54;;;;;;;3.53;2.33;;;;;;;;;;5039943;28;20443;-49
2021/12/09 12:06:35;;;;;;;3.60;2.53;;;;;;;;;;5022378;28;20798;-47
2021/12/09 12:11:11;;;;;;;7.07;2.90;;;;;;;;;;5036194;28;20449;-51
2021/12/09 12:11:30;;;;;;;2.73;2.17;;;;;;;;;;5038114;28;20435;-49
2021/12/09 12:14:04;;;;;;;7.60;2.20;;;;;;;;;;5039655;28;20431;-50
2021/12/09 12:17:03;;;;;;;2.40;1.73;;;;;;;;;;5038439;28;20429;-50
2021/12/09 12:19:43;;;;;;;4.03;2.53;;;;;;;;;;5014397;28;20703;-49
2021/12/09 12:22:49;;;;;;;2.83;2.10;;;;;;;;;;5050386;28;20476;-50
2021/12/09 12:34:14;;;;;;;5.30;2.43;;;;;;;;;;5038449;28;20769;-52
2021/12/09 12:37:08;;;;;;;7.63;2.57;;;;;;;;;;5034519;28;20649;-50
2021/12/09 12:39:58;;;;;;;10.73;2.50;;;;;;;;;;5030892;28;20450;-49
2021/12/09 12:43:01;;;;;;;6.60;2.10;;;;;;;;;;5039834;28;20446;-50
2021/12/09 12:48:09;;;;;;;10.40;2.90;;;;;;;;;;5045471;28;20573;-48
2021/12/09 12:50:36;;;;;;;7.40;3.40;;;;;;;;;;5037156;28;20528;-49
2021/12/09 12:53:21;;;;;;;6.30;2.80;;;;;;;;;;5022900;28;20442;-49
2021/12/09 12:56:05;;;;;;;5.07;2.60;;;;;;;;;;5039688;28;20546;-50
2021/12/09 12:58:31;;;;;;;3.10;2.17;;;;;;;;;;5038859;28;20477;-49
2021/12/09 13:01:13;;;;;;;5.23;3.10;;;;;;;;;;5022785;28;20520;-50
2021/12/09 13:03:45;;;;;;;5.07;2.00;;;;;;;;;;5028707;28;20462;-49
2021/12/09 13:06:15;;;;;;;4.03;1.90;;;;;;;;;;5024526;28;20478;-50
2021/12/09 13:09:09;;;;;;;5.23;1.80;;;;;;;;;;5038350;28;20487;-50
2021/12/09 13:11:52;;;;;;;10.00;2.47;;;;;;;;;;5035762;28;20456;-50
2021/12/09 13:14:23;;;;;;;10.30;2.33;;;;;;;;;;5031588;28;20466;-49
2021/12/09 13:17:06;;;;;;;6.50;3.00;;;;;;;;;;5036098;28;20434;-49
2021/12/09 13:19:51;;;;;;;8.00;2.40;;;;;;;;;;5018468;28;21040;-49
2021/12/09 13:22:21;;;;;;;6.73;2.30;;;;;;;;;;5038265;28;20438;-50
2021/12/09 13:24:59;;;;;;;2.73;2.00;;;;;;;;;;5033587;28;20565;-49
2021/12/09 13:30:31;;;;;;;5.93;2.33;;;;;;;;;;4999069;28;20473;-49
2021/12/09 13:46:38;;;;;;;3.17;2.23;;;;;;;;;;5036014;28;20508;-50
2021/12/09 13:49:19;;;;;;;5.13;1.97;;;;;;;;;;5041332;28;20430;-50
2021/12/09 13:54:24;;;;;;;6.27;2.03;;;;;;;;;;5017153;28;20442;-49
2021/12/09 13:57:01;;;;;;;4.73;1.80;;;;;;;;;;5034139;28;20906;-49
2021/12/09 13:59:28;;;;;;;6.80;2.40;;;;;;;;;;5038820;28;20665;-47
2021/12/09 14:01:55;;;;;;;4.23;2.37;;;;;;;;;;4998250;28;20809;-48
2021/12/09 14:04:23;;;;;;;7.17;3.23;;;;;;;;;;5032428;28;21152;-48
2021/12/09 14:07:00;;;;;;;6.17;2.80;;;;;;;;;;5038391;28;20608;-48
2021/12/09 14:09:29;;;;;;;13.27;4.40;;;;;;;;;;5043582;28;20564;-50
2021/12/09 14:12:04;;;;;;;6.97;2.63;;;;;;;;;;5022523;28;20848;-50
2021/12/09 14:15:03;;;;;;;4.40;2.07;;;;;;;;;;5043306;28;20438;-49
2021/12/09 14:17:25;;;;;;;8.23;2.93;;;;;;;;;;5016085;28;22427;-48
2021/12/09 14:20:03;;;;;;;4.00;1.90;;;;;;;;;;5038381;28;20518;-48
2021/12/09 14:22:31;;;;;;;9.10;2.40;;;;;;;;;;5026062;28;20454;-49
2021/12/09 14:25:00;;;;;;;2.80;1.63;;;;;;;;;;5036613;28;20479;-48
2021/12/09 14:27:26;;;;;;;8.03;3.13;;;;;;;;;;5042126;28;20450;-49
2021/12/09 14:29:53;;;;;;;2.83;1.73;;;;;;;;;;5035323;28;20442;-48
2021/12/09 14:32:20;;;;;;;6.27;2.63;;;;;;;;;;5035049;28;21705;-55
2021/12/09 14:34:48;;;;;;;4.63;3.20;;;;;;;;;;5047419;28;20797;-55
2021/12/09 14:37:32;;;;;;;9.40;1.60;;;;;;;;;;5022912;28;20462;-55
2021/12/09 14:40:08;;;;;;;7.93;2.20;;;;;;;;;;5040944;28;20435;-55
2021/12/09 14:42:36;;;;;;;5.70;2.00;;;;;;;;;;5031082;28;20463;-54
2021/12/09 14:45:10;;;;;;;7.13;2.40;;;;;;;;;;5021574;28;20475;-54
2021/12/09 14:47:36;;;;;;;4.13;2.37;;;;;;;;;;5037488;28;20542;-55
2021/12/09 14:50:14;;;;;;;4.80;2.00;;;;;;;;;;5019993;28;22647;-56
2021/12/09 14:52:45;;;;;;;5.87;1.67;;;;;;;;;;5043356;28;20430;-54
2021/12/09 14:55:23;;;;;;;3.93;2.03;;;;;;;;;;5021062;28;20763;-54
2021/12/09 14:57:52;;;;;;;5.43;1.87;;;;;;;;;;5041634;28;20855;-55
2021/12/09 15:00:32;;;;;;;6.57;1.97;;;;;;;;;;5024615;28;21194;-55
2021/12/09 15:02:59;;;;;;;4.17;1.73;;;;;;;;;;5016138;28;20818;-54
2021/12/09 15:05:25;;;;;;;5.90;3.03;;;;;;;;;;5041963;28;20482;-55
2021/12/09 15:07:59;;;;;;;7.13;2.10;;;;;;;;;;5001564;28;20944;-54
2021/12/09 15:10:30;;;;;;;4.27;2.47;;;;;;;;;;5039843;28;20519;-54
2021/12/09 15:12:58;;;;;;;6.40;2.87;;;;;;;;;;5025023;28;20461;-53
2021/12/09 15:15:28;;;;;;;11.20;2.23;;;;;;;;;;5046609;28;20446;-56
2021/12/09 15:18:06;;;;;;;6.03;2.83;;;;;;;;;;5018466;28;20446;-54
2021/12/09 15:20:35;;;;;;;4.00;1.93;;;;;;;;;;5044394;28;21239;-53
2021/12/09 15:23:14;;;;;;;10.10;2.67;;;;;;;;;;5038253;28;20526;-52
2021/12/09 15:25:46;;;;;;;10.80;2.57;;;;;;;;;;5043094;28;20485;-54
2021/12/09 15:28:12;;;;;;;5.40;1.80;;;;;;;;;;5019233;28;20442;-54
2021/12/09 15:30:52;;;;;;;4.50;1.80;;;;;;;;;;5044319;28;20431;-53
2021/12/09 15:33:24;;;;;;;6.33;2.20;;;;;;;;;;5020008;28;20482;-55
2021/12/09 15:36:07;;;;;;;7.70;3.07;;;;;;;;;;5043933;28;20457;-55
2021/12/09 15:38:33;;;;;;;3.47;2.50;;;;;;;;;;5018396;28;20446;-55
2021/12/09 15:40:59;;;;;;;3.47;2.03;;;;;;;;;;5061237;28;20483;-55
2021/12/09 15:43:25;;;;;;;8.03;2.50;;;;;;;;;;4999839;28;20880;-54
2021/12/09 15:45:54;;;;;;;6.70;2.70;;;;;;;;;;5038290;28;20842;-55
2021/12/09 15:48:21;;;;;;;3.40;1.80;;;;;;;;;;5022573;28;20472;-54